Hampton, Nebraska
Current Conditions -  °F | °C
As of 12:15 AM on Wednesday 22 Oct 2014 (Local Time) from KAUH Reporting Station
Haze Haze  
Wind Chill: 60°   Ceiling: Unl
Heat Index: 60°   Visibility: 4mi
Dew Point: 44°   Wind: 10mph
Humidity: 56%   Direction: 150°SSE
Pressure: 29.98"   Gusts: NA
Location:  40.88°N, 97.89°W
Report Text: KAUH 220515Z AUTO 15009KT 4SM HZ CLR 16/07 A2998 RMK AO2 T01550067
Loading
Personal Weather Stations






























Interactive Weather Map
Tropical Storm Tracking
New forecast layout! Learn more

10-Day Weather Forecast

Advertisements
Track Severe Weather on mobile